Etusivu
METAR-TAF:

METAR-TAF

Lentoasemat :

Watertown Municipal Airport

Watertown, Wisconsin, Yhdysvallat

Leveyspiiri: 43-10N, Pituuspiiri: 088-43W, korkeus merenpinnasta: 254 m

Tämänhetkinen sää

Tämä raportti tehtiin 26 minuuttia sitten, kello 15.15 UTC
Tuuli 6 kn lännestä
Lämpötila 23°C
Kosteus 78%
Ilmanpaine 1012 hPa
Näkyvyys: 16.1 km
selkeää

METAR: KRYV 031515Z AUTO 27006KT 10SM CLR 23/19 A2987 RMK AO2 T02300189

Aika: 10:41 (15:41 UTC)


TAF: puuttuu

Säähavainnot ja -ennusteet yli 4000 lentoasemalta (METAR- ja TAF-raportit).

Käytössä olevat sääasemat on merkitty karttaan keltaisilla ja punaisilla pisteillä.

Aseta hiiri pisteen päälle nähdäksesi sääaseman nimen.

Klikkaa sitten nähdäksesi säähavainnot ja -ennusteet.

Kartan vaihtaminen: klikkaa mustalla rastilla varustettuja vihreitä pisteitä, niin voit zoomata sisään; viivalla varustettua vihreää pistettä, niin voit zoomata ulos tai vihreitä nuolia, niin pääset viereisille kartoille.


METAR-TAF: